Time;durP1;ratioP1;P1;durP2;ratioP2;P2;SDS_P1;SDS_P2;PMS_P1;PMS_P2;Temp;Humidity;BMP_temperature;BMP_pressure;BME280_temperature;BME280_humidity;BME280_pressure;Samples;Min_cycle;Max_cycle;Signal;HPM_P1;HPM_P2
2023/12/12 00:02:40;;;;;;;14.90;7.40;;;;;;;5.61;100.00;99506.25;6325251;28;20052;-77
2023/12/12 00:05:41;;;;;;;14.73;6.78;;;;;;;5.64;100.00;99519.03;6324661;28;20496;-74
2023/12/12 00:08:42;;;;;;;20.17;7.95;;;;;;;5.65;100.00;99534.50;6325038;28;20067;-77
2023/12/12 00:11:43;;;;;;;15.88;7.72;;;;;;;5.68;100.00;99527.50;6324675;28;20055;-74
2023/12/12 00:14:44;;;;;;;12.85;7.38;;;;;;;5.75;100.00;99539.25;6325486;28;20051;-74
2023/12/12 00:17:44;;;;;;;25.02;8.82;;;;;;;5.67;100.00;99539.63;6324218;28;20048;-74
2023/12/12 00:20:45;;;;;;;16.35;7.75;;;;;;;5.61;100.00;99529.56;6324517;28;20048;-74
2023/12/12 00:23:46;;;;;;;18.30;7.80;;;;;;;5.71;100.00;99537.72;6325115;28;20055;-77
2023/12/12 00:26:47;;;;;;;10.23;6.45;;;;;;;5.82;100.00;99538.00;6325177;28;20529;-77
2023/12/12 00:29:51;;;;;;;17.55;7.72;;;;;;;5.83;100.00;99529.34;6323384;28;20083;-74
2023/12/12 00:32:51;;;;;;;16.20;8.45;;;;;;;5.84;100.00;99543.97;6323457;28;20098;-77
2023/12/12 00:35:52;;;;;;;14.32;7.50;;;;;;;5.85;100.00;99530.13;6323827;28;20143;-77
2023/12/12 00:38:53;;;;;;;11.82;6.50;;;;;;;5.72;100.00;99545.38;6324240;28;20482;-77
2023/12/12 00:41:53;;;;;;;14.73;7.22;;;;;;;5.77;100.00;99547.78;6323916;28;20131;-77
2023/12/12 00:44:54;;;;;;;11.55;7.22;;;;;;;5.83;100.00;99537.94;6325025;28;20063;-77
2023/12/12 00:47:58;;;;;;;30.08;7.78;;;;;;;5.91;100.00;99528.94;6323517;28;20055;-74
2023/12/12 00:51:01;;;;;;;14.63;7.18;;;;;;;5.88;100.00;99531.69;6324339;28;20098;-77
2023/12/12 00:54:02;;;;;;;13.13;7.30;;;;;;;5.80;100.00;99534.66;6323441;28;20415;-74
2023/12/12 00:57:03;;;;;;;15.75;8.65;;;;;;;5.72;100.00;99531.63;6322966;28;20062;-74
2023/12/12 01:00:05;;;;;;;17.90;8.25;;;;;;;5.69;100.00;99522.25;6324714;28;20063;-74
2023/12/12 01:03:08;;;;;;;14.48;8.07;;;;;;;5.64;100.00;99530.25;6323323;28;20102;-74
2023/12/12 01:06:22;;;;;;;24.50;9.25;;;;;;;5.64;100.00;99516.44;6324423;28;20052;-77
2023/12/12 01:09:25;;;;;;;22.48;8.52;;;;;;;5.74;100.00;99527.19;6324254;28;20052;-74
2023/12/12 01:12:28;;;;;;;14.10;7.07;;;;;;;5.65;100.00;99544.84;6306610;28;20048;-74
2023/12/12 01:15:30;;;;;;;18.70;10.13;;;;;;;5.69;100.00;99530.03;6305847;28;20049;-77
2023/12/12 01:18:31;;;;;;;18.10;9.13;;;;;;;5.71;100.00;99525.59;6313958;28;20502;-74
2023/12/12 01:21:34;;;;;;;20.85;10.00;;;;;;;5.64;100.00;99532.84;6323224;28;20098;-77
2023/12/12 01:24:35;;;;;;;22.40;9.77;;;;;;;5.77;100.00;99551.19;6324143;28;20051;-77
2023/12/12 01:27:36;;;;;;;18.70;10.13;;;;;;;5.89;100.00;99531.63;6323841;28;20048;-74
2023/12/12 01:30:37;;;;;;;22.23;9.35;;;;;;;5.81;100.00;99515.66;6322114;28;20084;-73
2023/12/12 01:33:38;;;;;;;23.60;10.35;;;;;;;5.89;100.00;99516.09;6322065;28;20054;-77
2023/12/12 01:36:38;;;;;;;20.58;10.13;;;;;;;5.92;100.00;99508.16;6323663;28;20052;-74
2023/12/12 01:39:39;;;;;;;23.33;9.85;;;;;;;5.99;100.00;99511.31;6323682;28;20055;-77
2023/12/12 01:42:41;;;;;;;24.48;10.90;;;;;;;5.93;100.00;99520.22;6322837;28;20043;-77
2023/12/12 01:45:42;;;;;;;19.63;10.07;;;;;;;5.86;100.00;99516.25;6323473;28;20055;-77
2023/12/12 01:48:43;;;;;;;20.83;11.43;;;;;;;5.94;100.00;99521.88;6322556;28;20105;-73
2023/12/12 01:51:47;;;;;;;24.83;10.55;;;;;;;5.88;100.00;99524.75;6321438;28;20040;-73
2023/12/12 01:54:49;;;;;;;22.20;10.00;;;;;;;5.93;100.00;99534.88;6321933;28;20095;-77
2023/12/12 01:57:50;;;;;;;19.85;11.27;;;;;;;5.84;100.00;99541.38;6321967;28;20468;-73
2023/12/12 02:00:52;;;;;;;27.80;11.73;;;;;;;5.92;100.00;99536.66;6322976;28;20055;-74
2023/12/12 02:03:56;;;;;;;29.65;12.13;;;;;;;5.86;100.00;99536.94;6321931;28;20063;-77
2023/12/12 02:06:59;;;;;;;20.42;10.70;;;;;;;5.86;100.00;99530.00;6321710;28;20422;-74
2023/12/12 02:10:00;;;;;;;23.08;9.98;;;;;;;5.80;100.00;99511.38;6321722;28;20479;-77
2023/12/12 02:13:01;;;;;;;22.65;11.13;;;;;;;5.92;100.00;99525.47;6321337;28;20052;-74
2023/12/12 02:16:02;;;;;;;23.65;12.10;;;;;;;5.84;100.00;99523.25;6322786;28;20059;-77
2023/12/12 02:19:03;;;;;;;21.40;11.05;;;;;;;5.89;100.00;99521.28;6323082;28;20058;-76
2023/12/12 02:22:04;;;;;;;22.75;12.52;;;;;;;6.02;100.00;99518.94;6322068;28;20045;-73
2023/12/12 02:25:05;;;;;;;20.27;10.65;;;;;;;6.13;100.00;99518.38;6321584;28;20071;-73
2023/12/12 02:28:08;;;;;;;27.00;12.37;;;;;;;6.06;100.00;99512.69;6321472;28;20052;-73
2023/12/12 02:31:09;;;;;;;23.70;12.18;;;;;;;6.08;100.00;99508.25;6320983;28;20107;-78
2023/12/12 02:34:10;;;;;;;29.00;12.82;;;;;;;6.08;100.00;99515.19;6321182;28;20395;-74
2023/12/12 02:37:11;;;;;;;23.60;11.32;;;;;;;6.05;100.00;99505.81;6321980;28;20043;-77
2023/12/12 02:40:12;;;;;;;27.77;12.93;;;;;;;6.09;100.00;99514.28;6321054;28;20458;-77
2023/12/12 02:43:13;;;;;;;21.92;11.10;;;;;;;5.91;100.00;99513.41;6321972;28;20052;-77
2023/12/12 02:46:14;;;;;;;23.08;12.15;;;;;;;5.99;100.00;99524.25;6320426;28;20500;-77
2023/12/12 02:49:15;;;;;;;28.10;11.68;;;;;;;5.86;100.00;99514.47;6320724;28;20052;-74
2023/12/12 02:52:16;;;;;;;24.80;13.55;;;;;;;5.94;100.00;99526.22;6320383;28;20052;-74
2023/12/12 02:55:17;;;;;;;32.38;13.70;;;;;;;6.01;100.00;99522.41;6321132;28;20052;-77
2023/12/12 02:58:18;;;;;;;22.27;10.02;;;;;;;5.82;100.00;99518.13;6321373;28;20059;-73
2023/12/12 03:01:19;;;;;;;22.67;12.02;;;;;;;5.93;100.00;99517.63;6321150;28;20055;-77
2023/12/12 03:04:20;;;;;;;33.25;13.32;;;;;;;5.82;100.00;99510.38;6320995;28;20048;-74
2023/12/12 03:07:20;;;;;;;21.02;10.95;;;;;;;5.81;100.00;99513.06;6322299;28;20135;-77
2023/12/12 03:10:21;;;;;;;21.15;12.77;;;;;;;5.93;100.00;99517.63;6321793;28;20060;-74
2023/12/12 03:13:22;;;;;;;29.77;10.85;;;;;;;6.09;100.00;99528.06;6322596;28;20548;-74
2023/12/12 03:16:23;;;;;;;24.20;11.60;;;;;;;6.06;100.00;99528.22;6320966;28;20086;-74
2023/12/12 03:19:24;;;;;;;20.88;10.85;;;;;;;5.97;100.00;99524.34;6320583;28;20144;-74
2023/12/12 03:22:27;;;;;;;19.80;11.40;;;;;;;5.93;100.00;99530.56;6320847;28;20044;-74
2023/12/12 03:25:28;;;;;;;22.17;11.63;;;;;;;6.10;100.00;99528.91;6325122;28;20052;-74
2023/12/12 03:28:31;;;;;;;24.08;12.07;;;;;;;6.19;100.00;99528.44;6325430;28;20139;-74
2023/12/12 03:31:32;;;;;;;25.40;12.80;;;;;;;6.19;100.00;99526.66;6325410;28;20048;-73
2023/12/12 03:34:35;;;;;;;24.35;11.85;;;;;;;6.01;100.00;99527.59;6325393;28;20059;-77
2023/12/12 03:37:36;;;;;;;22.27;11.68;;;;;;;6.14;100.00;99531.25;6325231;28;20051;-73
2023/12/12 03:40:37;;;;;;;20.42;10.63;;;;;;;6.12;100.00;99534.84;6320688;28;20055;-77
2023/12/12 03:43:38;;;;;;;25.70;12.45;;;;;;;6.36;100.00;99523.22;6324352;28;20052;-74
2023/12/12 03:46:38;;;;;;;24.30;11.88;;;;;;;6.28;100.00;99527.97;6324978;28;20060;-77
2023/12/12 03:49:39;;;;;;;24.75;12.15;;;;;;;6.28;100.00;99522.78;6324986;28;20090;-77
2023/12/12 03:52:42;;;;;;;24.17;11.80;;;;;;;6.12;100.00;99522.72;6325966;28;20434;-77
2023/12/12 03:55:43;;;;;;;26.58;13.90;;;;;;;6.22;100.00;99542.06;6326090;28;20087;-77
2023/12/12 03:58:45;;;;;;;20.90;10.98;;;;;;;6.14;100.00;99530.44;6325581;28;20132;-74
2023/12/12 04:01:49;;;;;;;30.83;13.05;;;;;;;6.27;100.00;99534.06;6324505;28;20395;-76
2023/12/12 04:04:49;;;;;;;25.42;12.88;;;;;;;6.35;100.00;99521.53;6325234;28;20052;-77
2023/12/12 04:07:50;;;;;;;25.88;12.77;;;;;;;6.34;100.00;99519.88;6325801;28;20054;-73
2023/12/12 04:10:52;;;;;;;23.80;12.18;;;;;;;6.28;100.00;99515.00;6314075;28;20056;-77
2023/12/12 04:13:52;;;;;;;26.20;13.55;;;;;;;6.22;100.00;99525.69;6299961;28;20052;-77
2023/12/12 04:16:53;;;;;;;25.48;13.02;;;;;;;6.17;100.00;99530.25;6333443;28;20067;-77
2023/12/12 04:19:54;;;;;;;23.77;13.20;;;;;;;6.10;100.00;99526.31;6306422;28;20387;-77
2023/12/12 04:22:55;;;;;;;23.77;13.50;;;;;;;6.11;100.00;99522.81;6325370;28;20050;-74
2023/12/12 04:25:56;;;;;;;28.50;14.52;;;;;;;6.25;100.00;99526.34;6324123;28;20048;-77
2023/12/12 04:28:57;;;;;;;23.58;10.63;;;;;;;6.16;100.00;99529.44;6324096;28;20063;-77
2023/12/12 04:31:58;;;;;;;24.20;10.35;;;;;;;6.08;100.00;99539.34;6325330;28;20048;-77
2023/12/12 04:35:05;;;;;;;22.90;12.63;;;;;;;5.93;100.00;99551.28;6323984;28;20059;-77
2023/12/12 04:38:06;;;;;;;22.48;12.32;;;;;;;6.00;100.00;99550.06;6324106;28;20048;-77
2023/12/12 04:41:08;;;;;;;26.38;11.20;;;;;;;5.97;100.00;99559.75;6325432;28;20048;-77
2023/12/12 04:44:09;;;;;;;29.08;14.18;;;;;;;5.99;100.00;99558.78;6324054;28;20056;-73
2023/12/12 04:47:11;;;;;;;25.83;11.80;;;;;;;5.98;100.00;99549.31;6323213;28;20044;-77
2023/12/12 04:50:14;;;;;;;20.85;11.30;;;;;;;6.10;100.00;99554.81;6323710;28;20114;-77
2023/12/12 04:53:17;;;;;;;30.23;12.57;;;;;;;6.01;100.00;99549.19;6321717;28;20069;-74
2023/12/12 04:56:18;;;;;;;28.05;13.65;;;;;;;6.06;100.00;99554.13;6321090;28;20055;-74
2023/12/12 04:59:19;;;;;;;21.95;11.75;;;;;;;6.10;100.00;99536.69;6323387;28;20048;-74
2023/12/12 05:02:22;;;;;;;27.25;13.02;;;;;;;5.96;100.00;99547.72;6321867;28;20044;-74
2023/12/12 05:05:23;;;;;;;30.42;12.75;;;;;;;6.08;100.00;99546.28;6316976;28;20462;-74
2023/12/12 05:08:24;;;;;;;25.02;13.32;;;;;;;6.21;100.00;99549.91;6304264;28;20342;-74
2023/12/12 05:11:25;;;;;;;25.65;11.75;;;;;;;6.11;100.00;99546.94;6316126;28;20471;-77
2023/12/12 05:14:26;;;;;;;22.88;11.65;;;;;;;6.18;100.00;99548.31;6301095;28;20048;-73
2023/12/12 05:17:27;;;;;;;18.55;10.40;;;;;;;6.07;100.00;99532.47;6297225;28;20098;-77
2023/12/12 05:20:28;;;;;;;28.15;14.13;;;;;;;6.11;100.00;99538.34;6302925;28;20097;-77
2023/12/12 05:23:29;;;;;;;26.45;12.85;;;;;;;6.25;100.00;99541.06;6297132;28;20040;-77
2023/12/12 05:26:30;;;;;;;26.13;12.77;;;;;;;6.05;100.00;99549.84;6316049;28;20464;-74
2023/12/12 05:29:31;;;;;;;29.95;13.48;;;;;;;6.12;100.00;99555.56;6313519;28;20079;-77
2023/12/12 05:32:32;;;;;;;25.83;12.25;;;;;;;6.01;100.00;99549.19;6321482;28;20510;-74
2023/12/12 05:35:36;;;;;;;24.88;13.98;;;;;;;6.05;100.00;99542.94;6322598;28;20059;-73
2023/12/12 05:38:37;;;;;;;34.15;12.70;;;;;;;6.07;100.00;99547.19;6318244;28;20052;-77
2023/12/12 05:41:37;;;;;;;25.67;13.50;;;;;;;6.08;100.00;99549.69;6303386;28;20048;-73
2023/12/12 05:44:41;;;;;;;33.15;12.80;;;;;;;6.12;100.00;99560.75;6305294;28;20063;-74
2023/12/12 05:47:42;;;;;;;25.52;13.07;;;;;;;6.03;100.00;99567.22;6301894;28;20057;-74
2023/12/12 05:50:43;;;;;;;24.35;13.02;;;;;;;6.00;100.00;99572.56;6329510;28;20060;-73
2023/12/12 05:53:44;;;;;;;24.00;12.93;;;;;;;6.01;100.00;99575.09;6296649;28;20052;-73
2023/12/12 05:56:45;;;;;;;31.05;13.13;;;;;;;6.08;100.00;99565.25;6296264;28;20087;-77
2023/12/12 05:59:47;;;;;;;24.35;12.25;;;;;;;6.13;100.00;99565.84;6318798;28;20060;-77
2023/12/12 06:02:48;;;;;;;21.67;12.00;;;;;;;5.97;100.00;99562.34;6321250;28;20044;-74
2023/12/12 06:05:49;;;;;;;28.92;13.45;;;;;;;6.24;100.00;99562.72;6322233;28;20527;-74
2023/12/12 06:08:51;;;;;;;28.65;13.10;;;;;;;6.07;100.00;99560.13;6321158;28;20044;-77
2023/12/12 06:11:52;;;;;;;25.92;12.65;;;;;;;5.81;100.00;99573.44;6321780;28;20484;-77
2023/12/12 06:14:54;;;;;;;25.85;13.15;;;;;;;5.83;100.00;99570.78;6322018;28;20044;-73
2023/12/12 06:17:55;;;;;;;27.35;14.23;;;;;;;5.89;100.00;99562.72;6321977;28;20060;-73
2023/12/12 06:20:56;;;;;;;26.17;12.52;;;;;;;5.78;100.00;99575.31;6322062;28;20044;-77
2023/12/12 06:23:57;;;;;;;21.63;12.10;;;;;;;5.79;100.00;99570.09;6321863;28;20048;-77
2023/12/12 06:26:57;;;;;;;31.77;13.68;;;;;;;5.81;100.00;99564.84;6322073;28;20048;-77
2023/12/12 06:29:58;;;;;;;29.85;13.25;;;;;;;5.67;100.00;99564.66;6320553;28;20059;-74
2023/12/12 06:33:01;;;;;;;22.63;12.77;;;;;;;5.82;100.00;99558.72;6321530;28;20090;-77
2023/12/12 06:36:02;;;;;;;21.83;11.18;;;;;;;5.65;100.00;99562.97;6320413;28;20454;-74
2023/12/12 06:39:03;;;;;;;21.75;12.30;;;;;;;5.62;100.00;99559.69;6320212;28;20500;-74
2023/12/12 06:42:07;;;;;;;22.05;11.93;;;;;;;5.76;100.00;99561.63;6320423;28;20131;-74
2023/12/12 06:45:10;;;;;;;24.10;13.52;;;;;;;5.55;100.00;99566.09;6321501;28;20158;-77
2023/12/12 06:48:12;;;;;;;25.17;12.52;;;;;;;5.52;100.00;99556.72;6321651;28;20054;-73
2023/12/12 06:51:13;;;;;;;28.63;12.60;;;;;;;5.56;100.00;99557.41;6319905;28;20147;-77
2023/12/12 06:54:14;;;;;;;24.70;13.00;;;;;;;5.68;100.00;99571.50;6321380;28;20579;-77
2023/12/12 06:57:22;;;;;;;24.52;11.50;;;;;;;5.57;100.00;99572.03;6322366;28;20056;-77
2023/12/12 07:00:24;;;;;;;26.70;12.27;;;;;;;5.74;100.00;99568.63;6326430;28;20556;-77
2023/12/12 07:03:25;;;;;;;23.75;11.82;;;;;;;5.82;100.00;99569.09;6326612;28;20101;-73
2023/12/12 07:06:26;;;;;;;18.75;11.43;;;;;;;5.69;100.00;99562.84;6326628;28;20089;-73
2023/12/12 07:09:27;;;;;;;27.15;11.57;;;;;;;5.79;100.00;99577.84;6325289;28;20393;-76
2023/12/12 07:12:30;;;;;;;25.20;12.30;;;;;;;5.78;100.00;99585.69;6326070;28;20438;-77
2023/12/12 07:15:31;;;;;;;23.65;11.80;;;;;;;5.98;100.00;99580.41;6326305;28;20048;-77
2023/12/12 07:18:32;;;;;;;24.65;13.20;;;;;;;5.98;100.00;99585.56;6326051;28;20560;-77
2023/12/12 07:21:41;;;;;;;33.38;12.50;;;;;;;6.25;100.00;99587.69;6324928;28;20052;-77
2023/12/12 07:24:42;;;;;;;28.70;12.73;;;;;;;6.20;100.00;99589.69;6326065;28;20048;-74
2023/12/12 07:27:43;;;;;;;27.42;12.48;;;;;;;6.23;100.00;99594.72;6326087;28;20075;-73
2023/12/12 07:30:44;;;;;;;25.05;13.13;;;;;;;6.40;100.00;99593.84;6325788;28;20113;-73
2023/12/12 07:33:45;;;;;;;23.27;13.23;;;;;;;6.46;100.00;99596.13;6324573;28;20499;-76
2023/12/12 07:36:46;;;;;;;19.92;10.65;;;;;;;6.46;100.00;99601.31;6324672;28;20090;-74
2023/12/12 07:39:47;;;;;;;23.08;11.52;;;;;;;6.32;100.00;99596.00;6324376;28;20414;-73
2023/12/12 07:42:48;;;;;;;26.10;12.18;;;;;;;6.40;100.00;99599.03;6324351;28;20512;-73
2023/12/12 07:45:51;;;;;;;22.38;12.18;;;;;;;6.31;100.00;99621.06;6324293;28;20052;-74
2023/12/12 07:48:54;;;;;;;19.67;11.68;;;;;;;6.38;100.00;99635.41;6324562;28;20048;-73
2023/12/12 07:51:55;;;;;;;21.70;11.32;;;;;;;6.48;100.00;99642.72;6324911;28;20070;-74
2023/12/12 07:54:56;;;;;;;21.48;10.82;;;;;;;6.37;100.00;99640.66;6324350;28;20488;-77
2023/12/12 07:57:57;;;;;;;25.80;11.35;;;;;;;6.49;100.00;99639.22;6325303;28;20056;-73
2023/12/12 08:00:57;;;;;;;19.70;10.50;;;;;;;6.64;100.00;99641.00;6325211;28;20138;-73
2023/12/12 08:03:58;;;;;;;24.58;10.55;;;;;;;6.60;100.00;99635.16;6323803;28;20052;-77
2023/12/12 08:07:01;;;;;;;20.25;11.05;;;;;;;6.51;100.00;99637.38;6323826;28;20052;-74
2023/12/12 08:10:03;;;;;;;18.52;10.13;;;;;;;6.55;100.00;99633.72;6323205;28;20051;-73
2023/12/12 08:13:04;;;;;;;19.20;10.85;;;;;;;6.54;100.00;99639.81;6324529;28;20530;-73
2023/12/12 08:16:05;;;;;;;24.30;10.63;;;;;;;6.83;100.00;99646.91;6323328;28;20442;-77
2023/12/12 08:19:06;;;;;;;18.75;10.38;;;;;;;6.85;100.00;99642.47;6324574;28;20063;-77
2023/12/12 08:22:07;;;;;;;16.13;10.10;;;;;;;6.75;100.00;99643.88;6323336;28;20044;-73
2023/12/12 08:25:08;;;;;;;20.08;10.73;;;;;;;6.84;100.00;99635.63;6323526;28;20054;-76
2023/12/12 08:28:13;;;;;;;21.85;10.32;;;;;;;6.92;100.00;99649.94;6323521;28;20135;-77
2023/12/12 08:31:16;;;;;;;23.90;9.90;;;;;;;6.87;99.37;99652.78;6323039;28;20051;-77
2023/12/12 08:34:17;;;;;;;21.80;10.27;;;;;;;7.05;99.40;99651.00;6323084;28;20419;-73
2023/12/12 08:37:18;;;;;;;20.63;9.35;;;;;;;7.17;98.32;99652.09;6324318;28;20052;-76
2023/12/12 08:40:19;;;;;;;14.23;8.82;;;;;;;7.08;98.69;99650.81;6324177;28;20411;-73
2023/12/12 08:43:20;;;;;;;16.70;9.30;;;;;;;7.18;98.31;99644.22;6323003;28;20056;-73
2023/12/12 08:46:29;;;;;;;18.73;9.38;;;;;;;7.23;98.31;99647.41;6323024;28;20102;-73
2023/12/12 08:49:37;;;;;;;12.57;8.10;;;;;;;7.01;98.85;99644.28;6323145;28;20059;-76
2023/12/12 08:52:38;;;;;;;18.52;9.27;;;;;;;6.98;98.71;99641.84;6322284;28;20139;-76
2023/12/12 08:55:38;;;;;;;24.10;8.63;;;;;;;7.07;98.75;99638.78;6322576;28;20047;-73
2023/12/12 08:58:40;;;;;;;16.95;9.45;;;;;;;7.12;98.72;99628.16;6323693;28;20487;-75
2023/12/12 09:01:40;;;;;;;16.20;7.93;;;;;;;7.14;97.96;99645.31;6322397;28;20438;-76
2023/12/12 09:04:43;;;;;;;18.40;8.25;;;;;;;7.31;97.20;99636.63;6323326;28;20052;-72
2023/12/12 09:07:44;;;;;;;14.23;8.40;;;;;;;7.26;96.14;99628.25;6323753;28;20051;-73
2023/12/12 09:10:45;;;;;;;12.07;8.07;;;;;;;7.40;96.68;99622.31;6322076;28;20098;-75
2023/12/12 09:13:46;;;;;;;17.92;9.23;;;;;;;7.37;96.19;99618.13;6323075;28;20052;-75
2023/12/12 09:16:49;;;;;;;16.17;8.38;;;;;;;7.45;96.18;99615.09;6323126;28;20495;-75
2023/12/12 09:19:50;;;;;;;13.65;7.45;;;;;;;7.41;95.68;99613.59;6321992;28;20051;-76
2023/12/12 09:22:51;;;;;;;19.83;8.10;;;;;;;7.23;95.59;99621.47;6320749;28;20052;-76
2023/12/12 09:25:52;;;;;;;15.93;8.27;;;;;;;7.44;95.53;99621.22;6321644;28;20106;-72
2023/12/12 09:28:53;;;;;;;13.30;7.55;;;;;;;7.45;96.10;99617.69;6323224;28;20071;-72
2023/12/12 09:31:53;;;;;;;22.20;8.82;;;;;;;7.42;95.80;99617.88;6322241;28;20048;-72
2023/12/12 09:34:54;;;;;;;15.50;7.60;;;;;;;7.37;95.35;99610.34;6321586;28;20048;-76
2023/12/12 09:37:55;;;;;;;28.25;12.07;;;;;;;7.62;95.52;99612.41;6321670;28;20059;-73
2023/12/12 09:40:57;;;;;;;33.93;15.23;;;;;;;7.74;95.04;99612.63;6323011;28;20055;-72
2023/12/12 09:44:01;;;;;;;30.30;14.60;;;;;;;7.86;94.36;99607.63;6322611;28;20094;-75
2023/12/12 09:47:03;;;;;;;23.77;10.40;;;;;;;7.79;93.97;99606.28;6322563;28;20055;-73
2023/12/12 09:50:06;;;;;;;71.43;20.93;;;;;;;7.91;93.48;99607.34;6320760;28;20054;-72
2023/12/12 09:53:08;;;;;;;65.03;21.00;;;;;;;7.68;93.26;99606.06;6321102;28;20052;-75
2023/12/12 09:56:12;;;;;;;87.68;24.48;;;;;;;7.93;92.13;99610.69;6322483;28;20048;-75
2023/12/12 09:59:14;;;;;;;76.18;22.35;;;;;;;8.09;91.22;99608.03;6322343;28;20056;-75
2023/12/12 10:02:22;;;;;;;29.88;12.25;;;;;;;8.55;89.52;99600.16;6321184;28;20043;-76
2023/12/12 10:05:26;;;;;;;23.75;10.13;;;;;;;8.56;88.46;99601.84;6322154;28;20044;-75
2023/12/12 10:08:27;;;;;;;28.42;10.77;;;;;;;8.73;88.27;99597.38;6321103;28;20052;-72
2023/12/12 10:11:28;;;;;;;27.58;10.00;;;;;;;8.68;87.63;99585.50;6320743;28;20044;-75
2023/12/12 10:14:37;;;;;;;19.60;10.93;;;;;;;8.74;87.21;99588.66;6321936;28;20401;-73
2023/12/12 10:17:38;;;;;;;15.73;9.43;;;;;;;8.93;86.44;99593.56;6320821;28;20059;-75
2023/12/12 10:20:39;;;;;;;19.17;8.70;;;;;;;9.22;86.35;99595.19;6320690;28;20047;-76
2023/12/12 10:23:50;;;;;;;19.77;8.65;;;;;;;9.11;86.23;99612.44;6320827;28;20044;-72
2023/12/12 10:26:50;;;;;;;18.75;8.00;;;;;;;8.87;86.67;99621.66;6320893;28;20070;-72
2023/12/12 10:29:51;;;;;;;25.80;10.43;;;;;;;9.12;86.79;99616.69;6320658;28;20201;-75
2023/12/12 10:32:53;;;;;;;16.67;7.63;;;;;;;9.04;84.73;99610.19;6320179;28;20044;-72
2023/12/12 10:35:54;;;;;;;24.77;11.65;;;;;;;8.97;85.20;99611.50;6321671;28;20055;-72
2023/12/12 10:39:13;;;;;;;22.80;10.68;;;;;;;9.05;85.35;99609.25;6320351;28;20557;-73
2023/12/12 10:42:15;;;;;;;10.52;6.40;;;;;;;8.94;85.81;99610.88;6320431;28;20044;-72
2023/12/12 10:45:16;;;;;;;13.50;7.82;;;;;;;9.16;86.08;99605.16;6321358;28;20047;-75
2023/12/12 10:48:20;;;;;;;17.23;6.90;;;;;;;9.32;85.29;99598.06;6320488;28;20059;-72
2023/12/12 10:51:23;;;;;;;14.38;5.70;;;;;;;9.39;84.43;99598.50;6319828;28;20300;-72
2023/12/12 10:54:27;;;;;;;11.80;6.40;;;;;;;9.80;83.82;99595.88;6320360;28;20059;-75
2023/12/12 10:57:29;;;;;;;;;;;;;;;10.08;82.51;99600.09;6321957;28;20052;-75
2023/12/12 11:00:30;;;;;;;13.25;5.72;;;;;;;10.31;81.77;99582.09;6320211;28;20370;-72
2023/12/12 11:03:31;;;;;;;12.20;6.20;;;;;;;10.36;79.99;99566.16;6320226;28;20044;-72
2023/12/12 11:06:33;;;;;;;16.67;7.57;;;;;;;10.20;79.45;99569.75;6320129;28;20517;-76
2023/12/12 11:09:34;;;;;;;11.27;5.47;;;;;;;10.18;78.51;99581.25;6321320;28;20056;-75
2023/12/12 11:12:42;;;;;;;11.38;6.07;;;;;;;10.14;80.06;99596.25;6321432;28;20074;-72
2023/12/12 11:15:45;;;;;;;9.15;4.95;;;;;;;10.02;79.95;99582.25;6321309;28;20135;-73
2023/12/12 11:18:48;;;;;;;16.95;6.53;;;;;;;10.16;79.65;99590.94;6321409;28;20051;-76
2023/12/12 11:21:49;;;;;;;12.55;6.45;;;;;;;10.21;80.82;99592.31;6320139;28;20044;-76
2023/12/12 11:25:03;;;;;;;10.10;5.00;;;;;;;10.38;79.95;99585.16;6321080;28;20058;-71
2023/12/12 11:28:04;;;;;;;13.73;6.90;;;;;;;10.17;80.37;99595.19;6320056;28;20056;-76
2023/12/12 11:31:06;;;;;;;16.58;6.80;;;;;;;10.46;80.32;99596.72;6319652;28;20044;-72
2023/12/12 11:34:10;;;;;;;21.85;9.43;;;;;;;10.57;79.16;99601.22;6319834;28;20086;-73
2023/12/12 11:37:11;;;;;;;16.05;7.72;;;;;;;10.55;78.31;99604.88;6319566;28;20479;-72
2023/12/12 11:40:13;;;;;;;16.00;7.53;;;;;;;10.64;78.88;99601.63;6319905;28;20082;-76
2023/12/12 11:43:19;;;;;;;10.55;5.57;;;;;;;10.39;78.76;99592.84;6319641;28;20292;-76
2023/12/12 11:46:21;;;;;;;19.30;7.93;;;;;;;10.45;79.24;99599.44;6323857;28;20054;-75
2023/12/12 11:49:23;;;;;;;12.73;6.18;;;;;;;10.57;78.07;99592.56;6325654;28;20142;-72
2023/12/12 11:52:39;;;;;;;13.13;6.30;;;;;;;10.49;78.57;99593.06;6323996;28;20464;-76
2023/12/12 11:55:42;;;;;;;11.00;6.13;;;;;;;10.71;78.00;99584.63;6324046;28;20113;-72
2023/12/12 11:58:43;;;;;;;12.25;5.60;;;;;;;10.76;76.98;99579.91;6324129;28;20415;-72
2023/12/12 12:01:44;;;;;;;12.65;5.57;;;;;;;10.95;76.65;99578.63;6324070;28;20048;-72
2023/12/12 12:04:45;;;;;;;8.50;4.75;;;;;;;10.66;76.67;99586.69;6324104;28;20051;-71
2023/12/12 12:07:46;;;;;;;10.65;5.20;;;;;;;10.73;76.21;99581.88;6324039;28;20048;-75
2023/12/12 12:10:56;;;;;;;9.52;5.10;;;;;;;10.48;76.18;99592.25;6323395;28;20055;-76
2023/12/12 12:13:57;;;;;;;10.85;4.85;;;;;;;10.67;75.45;99589.22;6323318;28;20077;-75
2023/12/12 12:17:01;;;;;;;13.18;6.53;;;;;;;10.49;75.70;99593.91;6323591;28;20081;-76
2023/12/12 12:20:03;;;;;;;18.35;7.97;;;;;;;10.44;76.21;99603.00;6324963;28;20052;-75
2023/12/12 12:23:06;;;;;;;;;;;;;;;10.56;77.27;99596.91;6324811;28;20048;-75
2023/12/12 12:26:07;;;;;;;9.93;4.78;;;;;;;10.56;76.66;99588.25;6323468;28;19927;-73
2023/12/12 12:29:11;;;;;;;14.15;6.30;;;;;;;10.28;76.45;99583.13;6323175;28;20075;-72
2023/12/12 12:32:17;;;;;;;11.32;5.05;;;;;;;9.92;80.16;99593.38;6323305;28;20044;-72
2023/12/12 12:35:18;;;;;;;33.90;15.52;;;;;;;9.84;80.63;99593.88;6322992;28;20048;-75
2023/12/12 12:38:31;;;;;;;60.00;27.65;;;;;;;9.73;82.69;99605.00;6323230;28;20044;-75
2023/12/12 12:41:32;;;;;;;23.00;10.40;;;;;;;9.74;82.89;99596.25;6322911;28;20113;-75
2023/12/12 12:44:33;;;;;;;18.00;8.10;;;;;;;10.19;81.51;99595.94;6323961;28;20129;-72
2023/12/12 12:47:36;;;;;;;12.02;6.18;;;;;;;10.06;80.47;99591.53;6323919;28;20471;-76
2023/12/12 12:50:52;;;;;;;8.75;5.03;;;;;;;10.04;80.49;99582.97;6323972;28;20125;-75
2023/12/12 12:53:53;;;;;;;10.77;5.20;;;;;;;10.20;80.05;99590.63;6323626;28;20499;-72
2023/12/12 12:56:54;;;;;;;11.15;5.20;;;;;;;10.37;80.35;99589.50;6322838;28;20058;-73
2023/12/12 12:59:54;;;;;;;11.23;5.05;;;;;;;10.42;80.38;99584.00;6324089;28;20048;-72
2023/12/12 13:02:55;;;;;;;13.35;6.88;;;;;;;10.56;79.58;99581.25;6322474;28;20044;-71
2023/12/12 13:05:58;;;;;;;13.65;6.68;;;;;;;10.35;79.42;99578.34;6322732;28;20080;-75
2023/12/12 13:08:59;;;;;;;;;;;;;;;10.31;79.45;99594.31;6322615;28;20052;-75
2023/12/12 13:12:03;;;;;;;9.20;5.47;;;;;;;10.56;78.48;99586.47;6323482;28;19927;-72
2023/12/12 13:15:09;;;;;;;18.08;7.88;;;;;;;10.40;78.36;99580.66;6323482;28;20052;-72
2023/12/12 13:18:10;;;;;;;14.05;7.30;;;;;;;10.58;78.63;99589.00;6322303;28;20052;-75
2023/12/12 13:21:11;;;;;;;11.38;5.40;;;;;;;10.22;78.00;99590.53;6322038;28;20048;-75
2023/12/12 13:24:12;;;;;;;13.80;5.55;;;;;;;10.05;77.51;99605.50;6323338;28;20044;-75
2023/12/12 13:27:13;;;;;;;10.10;4.88;;;;;;;9.99;78.42;99600.72;6323057;28;20074;-75
2023/12/12 13:30:15;;;;;;;10.73;4.85;;;;;;;9.86;81.02;99608.50;6322032;28;20491;-76
2023/12/12 13:33:16;;;;;;;22.75;9.40;;;;;;;9.72;81.66;99605.94;6321860;28;20047;-75
2023/12/12 13:36:19;;;;;;;37.63;12.80;;;;;;;9.69;81.46;99604.34;6321593;28;20393;-72
2023/12/12 13:39:20;;;;;;;19.35;8.13;;;;;;;9.56;80.69;99605.25;6323007;28;20055;-75
2023/12/12 13:42:23;;;;;;;19.17;9.38;;;;;;;9.61;81.20;99613.59;6321957;28;20058;-73
2023/12/12 13:45:24;;;;;;;14.75;5.95;;;;;;;9.57;80.47;99609.53;6322636;28;20392;-75
2023/12/12 13:48:25;;;;;;;13.27;6.75;;;;;;;9.54;81.27;99614.94;6321471;28;20052;-71
2023/12/12 13:51:25;;;;;;;15.98;7.05;;;;;;;9.61;81.28;99616.22;6321258;28;20052;-76
2023/12/12 13:54:29;;;;;;;16.38;7.75;;;;;;;9.62;81.03;99610.91;6321415;28;20044;-75
2023/12/12 13:57:30;;;;;;;19.25;7.40;;;;;;;9.62;81.11;99615.28;6321546;28;20055;-71
2023/12/12 14:00:31;;;;;;;17.92;7.78;;;;;;;9.60;79.93;99617.97;6321319;28;20130;-72
2023/12/12 14:03:32;;;;;;;16.42;8.30;;;;;;;9.56;80.78;99620.88;6321267;28;20051;-72
2023/12/12 14:06:32;;;;;;;12.73;6.20;;;;;;;9.42;82.19;99619.16;6320888;28;20048;-75